Flight Number: EUR2060 Duration: 9:00
Departure: St.Maarten (TNCM) at 21:30 Distance: 4007 Nm
Arrival: Munich Int'l (EDDM) at 06:30 Equipment: B777

Weather Information
Juliana Airport, Saint Maarten, Netherlands Antilles (TNCM) 18-03N 063-07W 9M May 22, 2018 - 03:00 PM EDT / 2018.05.22 1900 UTC
Wind: from the E (090 degrees) at 14 MPH (12 KT) (direction variable):0
Visibility: greater than 7 mile(s):0
Sky conditions: partly cloudy Temperature: 84 F (29 C) Dew Point: 69 F (21 C) Relative Humidity: 62% Pressure (altimeter): 30.03 in. Hg (1017 hPa)
ob: TNCM 221900Z 09012KT 050V130 9999 SCT020 29/21 Q1017 NOSIG RMK A3004 cycle: 19
Sunrise: 09:39 Sunset: 22:38 (UTC)

Munchen, Germany (EDDM) 48-21N 011-47E May 22, 2018 - 02:50 PM EDT / 2018.05.22 1850 UTC
Wind: from the SW (230 degrees) at 6 MPH (5 KT) (direction variable):0
Visibility: greater than 7 mile(s):0
Sky conditions: mostly cloudy Weather: light rain showers; Towering cumulus clouds observed Temperature: 62 F (17 C) Dew Point: 53 F (12 C) Relative Humidity: 72% Pressure (altimeter): 29.91 in. Hg (1013 hPa)
ob: EDDM 221850Z 23005KT 190V320 9999 -SHRA FEW055TCU SCT085 BKN120 17/12 Q1013 TEMPO SHRA cycle: 19
Sunrise: 03:28 Sunset: 18:51 (UTC)

TAF:2018/05/22 18:27 TAF EDDM 221700Z 2218/2324 VRB03KT CAVOK PROB40 TEMPO 2218/2220 18015G25KT TSRA BKN040CB PROB30 TEMPO 2304/2310 SHRA SCT040TCU BECMG 2308/2310 05007KT PROB40 TEMPO 2314/2320 16015G25KT TSRA BKN040CB BECMG 2318/2320 VRB03KT

Previous Pireps for this route
Date Aircraft Flight time Fuel used Landing rate On time
2013-02-21B7779.25231760No
2013-10-01B7779.021821500No
2013-11-03B7779.251822860No
2015-05-08B7779.041734000No
2015-06-23B7778.512001140No
2015-08-22B77710.29121897-173No
(pireps marked green are flown by you)

Route map